createdAt,value
2018-12-10T00:00:37.569Z,14.53
2018-12-10T00:03:12.575Z,16.70
2018-12-10T00:05:41.510Z,13.03
2018-12-10T00:08:10.591Z,14.90
2018-12-10T00:10:41.735Z,7.07
2018-12-10T00:13:10.224Z,19.07
2018-12-10T00:15:38.673Z,14.73
2018-12-10T00:18:07.167Z,8.50
2018-12-10T00:20:36.709Z,7.60
2018-12-10T00:23:05.667Z,10.97
2018-12-10T00:25:34.102Z,8.93
2018-12-10T00:28:03.182Z,13.37
2018-12-10T00:30:32.301Z,9.40
2018-12-10T00:33:01.673Z,9.73
2018-12-10T00:35:31.119Z,10.77
2018-12-10T00:37:59.807Z,10.40
2018-12-10T00:40:28.238Z,9.17
2018-12-10T00:42:57.843Z,9.80
2018-12-10T00:45:26.281Z,8.93
2018-12-10T00:47:55.854Z,7.60
2018-12-10T00:50:25.191Z,6.67
2018-12-10T00:52:53.802Z,6.27
2018-12-10T00:55:22.877Z,6.53
2018-12-10T00:57:52.687Z,6.77
2018-12-10T01:00:21.399Z,11.47
2018-12-10T01:02:51.122Z,5.73
2018-12-10T01:05:20.266Z,9.27
2018-12-10T01:07:50.196Z,5.40
2018-12-10T01:10:18.876Z,5.43
2018-12-10T01:12:48.207Z,8.93
2018-12-10T01:15:17.058Z,6.97
2018-12-10T01:17:45.918Z,3.90
2018-12-10T01:20:14.754Z,4.50
2018-12-10T01:22:43.603Z,7.03
2018-12-10T01:25:12.061Z,6.17
2018-12-10T01:27:41.563Z,9.27
2018-12-10T01:30:09.829Z,8.90
2018-12-10T01:32:38.527Z,6.93
2018-12-10T01:35:09.294Z,6.13
2018-12-10T01:37:37.753Z,5.60
2018-12-10T01:40:06.510Z,8.03
2018-12-10T01:42:35.409Z,8.43
2018-12-10T01:45:05.573Z,10.63
2018-12-10T01:47:35.149Z,11.30
2018-12-10T01:50:04.085Z,14.70
2018-12-10T01:52:33.670Z,4.67
2018-12-10T01:55:02.521Z,6.90
2018-12-10T01:57:33.898Z,8.40
2018-12-10T02:00:02.482Z,8.60
2018-12-10T02:02:30.908Z,7.83
2018-12-10T02:05:00.113Z,7.50
2018-12-10T02:07:30.148Z,7.53
2018-12-10T02:09:58.606Z,7.83
2018-12-10T02:12:27.442Z,6.87
2018-12-10T02:14:56.292Z,7.23
2018-12-10T02:17:25.667Z,9.50
2018-12-10T02:19:54.937Z,8.73
2018-12-10T02:22:24.321Z,14.90
2018-12-10T02:24:53.674Z,8.33
2018-12-10T02:27:26.976Z,9.53
2018-12-10T02:29:56.395Z,8.17
2018-12-10T02:32:25.900Z,10.23
2018-12-10T02:34:54.761Z,12.63
2018-12-10T02:37:24.245Z,13.33
2018-12-10T02:39:53.841Z,11.03
2018-12-10T02:42:22.602Z,10.63
2018-12-10T02:44:53.747Z,9.57
2018-12-10T02:47:23.144Z,10.93
2018-12-10T02:49:53.125Z,12.20
2018-12-10T02:52:21.838Z,8.63
2018-12-10T02:54:50.490Z,9.17
2018-12-10T02:57:19.427Z,11.63
2018-12-10T02:59:48.281Z,10.07
2018-12-10T03:02:16.951Z,10.60
2018-12-10T03:04:45.732Z,11.17
2018-12-10T03:07:14.288Z,8.20
2018-12-10T03:09:43.389Z,9.50
2018-12-10T03:12:11.855Z,5.47
2018-12-10T03:14:41.101Z,7.97
2018-12-10T03:17:09.821Z,7.47
2018-12-10T03:19:40.567Z,8.47
2018-12-10T03:22:09.300Z,5.77
2018-12-10T03:24:39.992Z,8.03
2018-12-10T03:27:09.383Z,5.27
2018-12-10T03:29:37.805Z,6.20
2018-12-10T03:32:06.996Z,7.87
2018-12-10T03:34:35.656Z,6.97
2018-12-10T03:37:06.074Z,8.47
2018-12-10T03:39:35.467Z,5.90
2018-12-10T03:42:05.073Z,8.17
2018-12-10T03:44:34.225Z,8.20
2018-12-10T03:47:05.356Z,7.43
2018-12-10T03:49:34.934Z,5.30
2018-12-10T03:52:03.896Z,10.53
2018-12-10T03:54:33.590Z,9.00
2018-12-10T03:57:02.561Z,6.60
2018-12-10T03:59:34.951Z,12.57
2018-12-10T04:02:05.016Z,8.17
2018-12-10T04:04:38.156Z,8.20
2018-12-10T04:07:08.527Z,13.67
2018-12-10T04:09:38.874Z,9.77
2018-12-10T04:12:07.776Z,13.07
2018-12-10T04:14:37.558Z,7.50
2018-12-10T04:17:06.409Z,9.30
2018-12-10T04:19:38.386Z,12.13
2018-12-10T04:22:08.021Z,8.80
2018-12-10T04:24:36.899Z,8.97
2018-12-10T04:27:05.730Z,8.33
2018-12-10T04:29:34.676Z,9.83
2018-12-10T04:32:04.048Z,12.93
2018-12-10T04:34:34.171Z,9.50
2018-12-10T04:37:04.171Z,7.63
2018-12-10T04:39:33.268Z,11.13
2018-12-10T04:42:02.422Z,9.83
2018-12-10T04:44:32.056Z,11.03
2018-12-10T04:47:00.845Z,10.00
2018-12-10T04:49:29.719Z,8.87
2018-12-10T04:51:58.799Z,6.37
2018-12-10T04:54:27.643Z,7.83
2018-12-10T04:56:56.640Z,8.50
2018-12-10T04:59:26.140Z,10.27
2018-12-10T05:01:55.801Z,7.87
2018-12-10T05:04:24.314Z,9.27
2018-12-10T05:06:53.901Z,8.13
2018-12-10T05:09:22.806Z,11.20
2018-12-10T05:11:51.699Z,10.13
2018-12-10T05:14:21.406Z,8.43
2018-12-10T05:16:50.222Z,9.13
2018-12-10T05:19:19.733Z,8.53
2018-12-10T05:21:48.798Z,7.10
2018-12-10T05:24:17.207Z,13.90
2018-12-10T05:26:45.652Z,9.27
2018-12-10T05:29:14.323Z,11.17
2018-12-10T05:31:43.975Z,12.17
2018-12-10T05:34:14.380Z,12.20
2018-12-10T05:36:44.569Z,6.70
2018-12-10T05:39:14.396Z,12.20
2018-12-10T05:41:44.250Z,9.97
2018-12-10T05:44:12.985Z,5.73
2018-12-10T05:46:42.764Z,7.70
2018-12-10T05:49:11.188Z,7.33
2018-12-10T05:51:40.226Z,9.07
2018-12-10T05:54:09.684Z,7.87
2018-12-10T05:56:39.857Z,10.17
2018-12-10T05:59:09.721Z,10.83
2018-12-10T06:01:38.280Z,6.27
2018-12-10T06:04:07.095Z,11.07
2018-12-10T06:06:36.735Z,8.43
2018-12-10T06:09:07.270Z,11.00
2018-12-10T06:11:36.647Z,11.50
2018-12-10T06:14:05.083Z,14.50
2018-12-10T06:16:35.610Z,8.43
2018-12-10T06:19:04.365Z,8.77
2018-12-10T06:21:32.889Z,6.80
2018-12-10T06:24:02.280Z,7.87
2018-12-10T06:26:31.721Z,9.67
2018-12-10T06:29:00.426Z,8.87
2018-12-10T06:31:29.132Z,12.03
2018-12-10T06:33:58.285Z,10.00
2018-12-10T06:36:27.986Z,9.67
2018-12-10T06:38:57.150Z,8.60
2018-12-10T06:41:26.366Z,6.30
2018-12-10T06:43:54.825Z,9.07
2018-12-10T06:46:24.068Z,7.40
2018-12-10T06:48:53.350Z,9.87
2018-12-10T06:51:22.485Z,8.50
2018-12-10T06:53:51.766Z,17.30
2018-12-10T06:56:22.669Z,9.90
2018-12-10T06:58:58.516Z,9.57
2018-12-10T07:01:28.287Z,10.13
2018-12-10T07:03:57.612Z,8.40
2018-12-10T07:06:26.942Z,6.70
2018-12-10T07:08:57.471Z,7.60
2018-12-10T07:11:37.861Z,3.50
2018-12-10T07:14:07.125Z,3.20
2018-12-10T07:16:36.478Z,6.63
2018-12-10T07:19:09.615Z,4.50
2018-12-10T07:21:39.199Z,3.13
2018-12-10T07:24:09.160Z,5.40
2018-12-10T07:26:48.026Z,5.00
2018-12-10T07:29:18.705Z,9.33
2018-12-10T07:31:52.346Z,12.87
2018-12-10T07:34:21.093Z,5.00
2018-12-10T07:36:51.777Z,7.20
2018-12-10T07:41:58.429Z,7.83
2018-12-10T07:44:29.694Z,7.90
2018-12-10T07:47:03.054Z,8.60
2018-12-10T07:49:33.695Z,7.70
2018-12-10T07:52:04.706Z,10.53
2018-12-10T07:54:33.374Z,7.23
2018-12-10T07:57:06.061Z,9.07
2018-12-10T07:59:42.765Z,7.40
2018-12-10T08:02:11.973Z,9.10
2018-12-10T08:04:47.815Z,6.83
2018-12-10T08:07:20.031Z,7.93
2018-12-10T08:09:50.577Z,9.00
2018-12-10T08:12:20.318Z,8.13
2018-12-10T08:14:48.974Z,5.37
2018-12-10T08:17:17.802Z,5.30
2018-12-10T08:19:46.357Z,6.37
2018-12-10T08:22:15.678Z,6.17
2018-12-10T08:24:49.773Z,7.00
2018-12-10T08:27:18.675Z,8.43
2018-12-10T08:29:48.710Z,7.63
2018-12-10T08:35:24.052Z,4.43
2018-12-10T08:37:56.475Z,4.47
2018-12-10T08:40:31.343Z,6.97
2018-12-10T08:43:08.973Z,8.27
2018-12-10T08:45:38.577Z,8.17
2018-12-10T08:48:11.438Z,8.83
2018-12-10T08:50:40.122Z,7.90
2018-12-10T08:53:10.378Z,3.70
2018-12-10T08:55:39.923Z,6.60
2018-12-10T08:58:35.787Z,11.57
2018-12-10T09:01:06.097Z,5.63
2018-12-10T09:03:35.214Z,7.53
2018-12-10T09:06:04.173Z,8.57
2018-12-10T09:08:33.903Z,8.53
2018-12-10T09:11:03.582Z,4.33
2018-12-10T09:13:43.952Z,8.73
2018-12-10T09:16:14.133Z,5.50
2018-12-10T09:18:43.967Z,4.07
2018-12-10T09:21:12.835Z,6.83
2018-12-10T09:23:43.739Z,7.77
2018-12-10T09:26:12.637Z,11.13
2018-12-10T09:28:43.704Z,3.57
2018-12-10T09:31:26.791Z,6.70
2018-12-10T09:33:57.778Z,4.53
2018-12-10T09:36:27.327Z,5.57
2018-12-10T09:39:06.346Z,4.30
2018-12-10T09:41:53.688Z,4.43
2018-12-10T09:44:30.268Z,4.60
2018-12-10T09:47:00.242Z,4.67
2018-12-10T09:49:29.033Z,3.97
2018-12-10T09:52:00.226Z,2.73
2018-12-10T09:54:29.723Z,10.13
2018-12-10T09:57:00.595Z,4.97
2018-12-10T09:59:29.602Z,5.90
2018-12-10T10:01:59.162Z,5.10
2018-12-10T10:04:27.759Z,4.10
2018-12-10T10:06:57.110Z,9.33
2018-12-10T10:09:25.590Z,7.37
2018-12-10T10:11:56.249Z,10.00
2018-12-10T10:14:24.715Z,8.63
2018-12-10T10:16:54.792Z,11.90
2018-12-10T10:19:33.335Z,11.37
2018-12-10T10:22:05.462Z,8.17
2018-12-10T10:24:34.423Z,8.00
2018-12-10T10:27:02.886Z,4.73
2018-12-10T10:29:34.787Z,9.70
2018-12-10T10:32:04.399Z,6.73
2018-12-10T10:34:32.862Z,9.43
2018-12-10T10:37:01.314Z,7.80
2018-12-10T10:39:29.783Z,5.50
2018-12-10T10:41:58.228Z,6.47
2018-12-10T10:44:34.621Z,10.27
2018-12-10T10:47:08.444Z,7.40
2018-12-10T10:49:37.435Z,7.40
2018-12-10T10:52:08.753Z,8.10
2018-12-10T10:54:38.536Z,8.40
2018-12-10T10:57:07.386Z,7.37
2018-12-10T10:59:35.856Z,6.80
2018-12-10T11:02:09.935Z,3.73
2018-12-10T11:04:39.433Z,7.77
2018-12-10T11:07:07.884Z,10.33
2018-12-10T11:09:36.806Z,7.37
2018-12-10T11:12:05.536Z,7.03
2018-12-10T11:14:34.325Z,5.53
2018-12-10T11:17:04.624Z,6.43
2018-12-10T11:19:33.133Z,4.00
2018-12-10T11:22:05.594Z,6.50
2018-12-10T11:24:39.522Z,7.07
2018-12-10T11:27:09.675Z,5.13
2018-12-10T11:29:39.860Z,3.80
2018-12-10T11:32:10.292Z,6.57
2018-12-10T11:34:40.633Z,3.37
2018-12-10T11:37:12.889Z,6.77
2018-12-10T11:39:45.661Z,5.20
2018-12-10T11:42:18.514Z,8.93
2018-12-10T11:44:50.206Z,8.70
2018-12-10T11:47:20.849Z,6.80
2018-12-10T11:49:52.969Z,4.93
2018-12-10T11:52:22.040Z,8.93
2018-12-10T11:54:57.823Z,4.90
2018-12-10T11:57:30.459Z,7.43
2018-12-10T12:00:02.167Z,5.83
2018-12-10T12:02:30.732Z,11.00
2018-12-10T12:05:01.886Z,7.93
2018-12-10T12:07:32.652Z,6.30
2018-12-10T12:10:02.264Z,8.80
2018-12-10T12:12:31.428Z,7.40
2018-12-10T12:15:00.189Z,7.07
2018-12-10T12:17:29.479Z,10.47
2018-12-10T12:19:58.649Z,8.77
2018-12-10T12:22:27.109Z,5.90
2018-12-10T12:24:56.387Z,6.87
2018-12-10T12:27:26.919Z,8.10
2018-12-10T12:29:56.510Z,6.03
2018-12-10T12:32:24.992Z,6.33
2018-12-10T12:34:53.657Z,6.90
2018-12-10T12:37:26.813Z,8.23
2018-12-10T12:39:57.403Z,4.83
2018-12-10T12:42:29.309Z,6.57
2018-12-10T12:44:58.493Z,10.17
2018-12-10T12:47:28.956Z,9.00
2018-12-10T12:49:57.546Z,5.63
2018-12-10T12:52:26.439Z,4.93
2018-12-10T12:54:55.263Z,4.93
2018-12-10T12:57:23.716Z,5.87
2018-12-10T12:59:53.738Z,4.83
2018-12-10T13:02:22.526Z,3.73
2018-12-10T13:04:50.957Z,3.27
2018-12-10T13:07:19.621Z,4.07
2018-12-10T13:09:49.612Z,4.43
2018-12-10T13:12:23.221Z,5.73
2018-12-10T13:14:57.511Z,5.90
2018-12-10T13:17:26.364Z,2.83
2018-12-10T13:19:58.401Z,3.33
2018-12-10T13:22:28.665Z,4.73
2018-12-10T13:24:57.089Z,4.97
2018-12-10T13:27:28.119Z,4.67
2018-12-10T13:29:56.576Z,5.43
2018-12-10T13:32:27.078Z,4.20
2018-12-10T13:34:55.535Z,2.93
2018-12-10T13:37:25.514Z,3.60
2018-12-10T13:39:56.069Z,6.87
2018-12-10T13:42:24.705Z,4.63
2018-12-10T13:44:53.933Z,5.30
2018-12-10T13:47:24.805Z,3.60
2018-12-10T13:50:02.423Z,3.10
2018-12-10T13:52:38.132Z,4.27
2018-12-10T13:55:07.460Z,2.80
2018-12-10T13:57:37.632Z,5.27
2018-12-10T14:00:09.010Z,5.63
2018-12-10T14:02:39.225Z,3.97
2018-12-10T14:05:13.283Z,6.30
2018-12-10T14:07:41.991Z,7.50
2018-12-10T14:10:10.491Z,7.87
2018-12-10T14:12:39.735Z,5.20
2018-12-10T14:15:10.992Z,8.40
2018-12-10T14:17:39.726Z,6.53
2018-12-10T14:20:09.705Z,2.47
2018-12-10T14:22:46.095Z,4.47
2018-12-10T14:25:30.341Z,1.97
2018-12-10T14:28:11.761Z,3.37
2018-12-10T14:30:41.072Z,3.30
2018-12-10T14:33:16.982Z,3.67
2018-12-10T14:35:47.249Z,1.20
2018-12-10T14:38:16.641Z,4.33
2018-12-10T14:40:46.717Z,2.20
2018-12-10T14:46:15.174Z,5.90
2018-12-10T14:48:44.683Z,2.00
2018-12-10T14:51:16.059Z,4.23
2018-12-10T14:53:45.748Z,4.00
2018-12-10T14:56:14.634Z,1.60
2018-12-10T14:58:44.254Z,2.30
2018-12-10T15:01:13.134Z,3.13
2018-12-10T15:03:42.950Z,3.07
2018-12-10T15:06:14.614Z,2.60
2018-12-10T15:08:44.747Z,1.83
2018-12-10T15:11:15.672Z,1.70
2018-12-10T15:13:47.943Z,2.40
2018-12-10T15:16:19.667Z,2.53
2018-12-10T15:18:49.098Z,2.77
2018-12-10T15:21:25.148Z,2.60
2018-12-10T15:23:56.657Z,2.97
2018-12-10T15:26:27.583Z,2.50
2018-12-10T15:28:58.190Z,2.77
2018-12-10T15:31:27.935Z,2.10
2018-12-10T15:33:58.606Z,2.73
2018-12-10T15:36:30.117Z,4.07
2018-12-10T15:39:03.285Z,3.53
2018-12-10T15:41:33.071Z,2.27
2018-12-10T15:44:03.828Z,3.80
2018-12-10T15:46:35.193Z,2.10
2018-12-10T15:49:05.660Z,2.27
2018-12-10T15:51:36.418Z,3.13
2018-12-10T15:54:06.029Z,4.57
2018-12-10T15:56:34.560Z,4.17
2018-12-10T15:59:03.045Z,4.60
2018-12-10T16:01:32.327Z,2.73
2018-12-10T16:04:01.041Z,6.30
2018-12-10T16:06:29.960Z,4.57
2018-12-10T16:08:58.877Z,4.63
2018-12-10T16:11:27.325Z,4.53
2018-12-10T16:13:56.343Z,3.87
2018-12-10T16:16:26.386Z,4.63
2018-12-10T16:18:56.960Z,4.97
2018-12-10T16:21:25.389Z,4.23
2018-12-10T16:23:57.303Z,2.93
2018-12-10T16:26:28.680Z,5.10
2018-12-10T16:29:00.900Z,4.93
2018-12-10T16:31:36.581Z,5.13
2018-12-10T16:34:06.157Z,3.80
2018-12-10T16:36:41.124Z,5.00
2018-12-10T16:39:15.247Z,5.97
2018-12-10T16:41:45.349Z,7.40
2018-12-10T16:44:15.199Z,6.27
2018-12-10T16:46:45.371Z,7.60
2018-12-10T16:49:21.373Z,5.37
2018-12-10T16:51:52.420Z,6.50
2018-12-10T16:54:21.722Z,4.13
2018-12-10T16:56:52.391Z,6.87
2018-12-10T16:59:21.135Z,7.73
2018-12-10T17:01:49.641Z,7.20
2018-12-10T17:04:20.150Z,6.07
2018-12-10T17:06:52.389Z,7.00
2018-12-10T17:09:21.190Z,4.93
2018-12-10T17:11:49.848Z,7.50
2018-12-10T17:14:19.009Z,6.37
2018-12-10T17:16:47.651Z,5.97
2018-12-10T17:19:21.631Z,7.00
2018-12-10T17:21:52.939Z,10.60
2018-12-10T17:24:21.961Z,6.83
2018-12-10T17:26:51.373Z,7.27
2018-12-10T17:29:36.258Z,8.47
2018-12-10T17:32:06.771Z,7.17
2018-12-10T17:34:35.237Z,7.50
2018-12-10T17:37:04.175Z,6.80
2018-12-10T17:39:32.847Z,8.53
2018-12-10T17:42:09.080Z,6.23
2018-12-10T17:44:38.514Z,5.43
2018-12-10T17:47:08.863Z,5.00
2018-12-10T17:49:40.342Z,6.90
2018-12-10T17:52:13.836Z,6.33
2018-12-10T17:54:42.643Z,8.00
2018-12-10T17:57:11.772Z,7.00
2018-12-10T17:59:40.933Z,6.03
2018-12-10T18:02:09.686Z,8.80
2018-12-10T18:04:38.435Z,7.17
2018-12-10T18:07:06.872Z,9.50
2018-12-10T18:09:35.588Z,8.43
2018-12-10T18:12:04.271Z,8.70
2018-12-10T18:14:33.738Z,8.00
2018-12-10T18:17:02.233Z,5.93
2018-12-10T18:19:30.679Z,6.30
2018-12-10T18:21:59.160Z,8.23
2018-12-10T18:24:29.356Z,4.30
2018-12-10T18:26:59.219Z,6.57
2018-12-10T18:29:29.778Z,5.10
2018-12-10T18:31:58.576Z,5.90
2018-12-10T18:34:27.516Z,3.97
2018-12-10T18:36:56.949Z,5.63
2018-12-10T18:39:27.432Z,4.73
2018-12-10T18:41:56.524Z,5.53
2018-12-10T18:44:26.158Z,6.27
2018-12-10T18:47:00.619Z,4.70
2018-12-10T18:49:30.152Z,5.07
2018-12-10T18:52:00.070Z,4.23
2018-12-10T18:54:31.425Z,5.37
2018-12-10T18:57:01.139Z,8.50
2018-12-10T18:59:33.040Z,6.20
2018-12-10T19:02:03.633Z,3.63
2018-12-10T19:04:33.763Z,8.93
2018-12-10T19:07:04.079Z,5.87
2018-12-10T19:09:37.716Z,5.90
2018-12-10T19:12:07.818Z,8.50
2018-12-10T19:14:39.182Z,7.83
2018-12-10T19:17:10.583Z,8.27
2018-12-10T19:19:41.222Z,7.17
2018-12-10T19:22:10.663Z,10.20
2018-12-10T19:24:39.851Z,7.00
2018-12-10T19:27:10.200Z,9.73
2018-12-10T19:29:40.852Z,7.80
2018-12-10T19:32:13.934Z,7.53
2018-12-10T19:34:45.296Z,11.37
2018-12-10T19:37:16.581Z,9.57
2018-12-10T19:39:47.334Z,13.37
2018-12-10T19:42:19.082Z,12.10
2018-12-10T19:44:51.435Z,10.73
2018-12-10T19:47:20.247Z,13.60
2018-12-10T19:49:49.963Z,17.30
2018-12-10T19:52:20.927Z,11.90
2018-12-10T19:54:49.916Z,9.33
2018-12-10T19:57:19.585Z,10.40
2018-12-10T19:59:51.452Z,12.70
2018-12-10T20:02:24.603Z,12.73
2018-12-10T20:04:53.485Z,13.00
2018-12-10T20:07:24.028Z,13.20
2018-12-10T20:09:55.831Z,11.57
2018-12-10T20:12:28.152Z,11.03
2018-12-10T20:14:56.583Z,15.83
2018-12-10T20:17:25.019Z,10.40
2018-12-10T20:19:53.757Z,13.07
2018-12-10T20:22:24.237Z,13.00
2018-12-10T20:24:52.684Z,9.77
2018-12-10T20:27:21.244Z,12.80
2018-12-10T20:29:49.958Z,13.47
2018-12-10T20:32:19.466Z,13.37
2018-12-10T20:34:48.158Z,11.90
2018-12-10T20:37:18.043Z,12.47
2018-12-10T20:39:47.436Z,12.40
2018-12-10T20:42:15.895Z,14.63
2018-12-10T20:44:45.630Z,12.27
2018-12-10T20:47:14.077Z,12.03
2018-12-10T20:49:43.949Z,14.70
2018-12-10T20:52:13.848Z,11.20
2018-12-10T20:54:44.226Z,11.60
2018-12-10T20:57:13.854Z,8.23
2018-12-10T20:59:46.900Z,10.20
2018-12-10T21:02:16.162Z,14.07
2018-12-10T21:04:45.630Z,13.60
2018-12-10T21:07:14.484Z,6.93
2018-12-10T21:09:45.278Z,9.17
2018-12-10T21:12:15.677Z,12.23
2018-12-10T21:14:45.680Z,11.13
2018-12-10T21:17:15.528Z,10.97
2018-12-10T21:19:43.990Z,10.73
2018-12-10T21:22:12.991Z,10.67
2018-12-10T21:24:42.270Z,11.37
2018-12-10T21:27:11.184Z,11.27
2018-12-10T21:29:47.479Z,9.57
2018-12-10T21:32:21.147Z,12.70
2018-12-10T21:34:53.675Z,7.90
2018-12-10T21:37:23.022Z,9.50
2018-12-10T21:39:54.768Z,10.90
2018-12-10T21:42:26.719Z,6.57
2018-12-10T21:44:59.583Z,8.07
2018-12-10T21:47:29.882Z,8.77
2018-12-10T21:50:02.102Z,7.27
2018-12-10T21:52:35.863Z,5.57
2018-12-10T21:55:16.869Z,6.43
2018-12-10T21:57:45.354Z,12.13
2018-12-10T22:00:18.526Z,7.80
2018-12-10T22:02:49.291Z,13.73
2018-12-10T22:05:20.762Z,10.70
2018-12-10T22:07:51.434Z,10.87
2018-12-10T22:10:22.201Z,9.60
2018-12-10T22:12:52.678Z,12.63
2018-12-10T22:15:23.728Z,5.47
2018-12-10T22:17:55.791Z,6.93
2018-12-10T22:20:27.387Z,13.10
2018-12-10T22:23:00.207Z,7.93
2018-12-10T22:25:32.324Z,10.10
2018-12-10T22:28:03.781Z,7.57
2018-12-10T22:30:35.719Z,12.13
2018-12-10T22:33:10.619Z,11.13
2018-12-10T22:35:43.089Z,9.33
2018-12-10T22:38:15.031Z,9.33
2018-12-10T22:40:45.834Z,15.47
2018-12-10T22:43:18.101Z,6.57
2018-12-10T22:45:51.967Z,9.40
2018-12-10T22:48:23.404Z,8.70
2018-12-10T22:50:56.422Z,7.50
2018-12-10T22:53:27.938Z,11.13
2018-12-10T22:56:00.515Z,12.23
2018-12-10T22:58:32.910Z,8.00
2018-12-10T23:01:03.689Z,11.90
2018-12-10T23:03:34.344Z,10.70
2018-12-10T23:06:07.014Z,12.60
2018-12-10T23:08:41.568Z,6.60
2018-12-10T23:11:12.704Z,9.27
2018-12-10T23:13:45.202Z,10.43
2018-12-10T23:16:15.685Z,7.87
2018-12-10T23:18:49.582Z,8.83
2018-12-10T23:21:23.486Z,7.10
2018-12-10T23:23:55.706Z,5.73
2018-12-10T23:26:28.884Z,9.23
2018-12-10T23:29:01.308Z,7.67
2018-12-10T23:31:32.416Z,3.80
2018-12-10T23:34:03.369Z,5.67
2018-12-10T23:36:35.576Z,5.37
2018-12-10T23:39:08.797Z,6.83
2018-12-10T23:41:39.899Z,7.77
2018-12-10T23:44:13.940Z,7.87
2018-12-10T23:46:45.937Z,6.03
2018-12-10T23:49:18.282Z,8.13
2018-12-10T23:51:50.026Z,8.30
2018-12-10T23:54:24.947Z,8.47
2018-12-10T23:56:58.221Z,11.00
2018-12-10T23:59:31.261Z,12.43
